Terminal Aerodrome Forecast
Issued by NWS Sioux Falls, SD

Home | Current Version | Previous Version | Graphics & Text | Print | Product List | Glossary Off
Versions: 1 2 3 4 5 6 7 8 9 10 11 12 13 14 15 16

000
FTUS43 KFSD 250526
TAFFSD
TAF
KFSD 250526Z 2506/2606 21008KT 1SM BR OVC003
     FM251000 31015G22KT P6SM SCT025
     FM251400 32020G30KT P6SM BKN025
     FM251800 33020G28KT P6SM BKN035
     FM260000 33010KT P6SM SCT040=

USA.gov is the U.S. government's official web portal to all federal, state and local government web resources and services.